sensor_id;sensor_type;location;lat;lon;timestamp;P1;durP1;ratioP1;P2;durP2;ratioP2
16760;SDS011;8498;52.516;13.790;2022-07-15T00:00:57;3.43;;;1.30;;
16760;SDS011;8498;52.516;13.790;2022-07-15T00:06:21;3.33;;;0.90;;
16760;SDS011;8498;52.516;13.790;2022-07-15T00:11:43;4.07;;;1.17;;
16760;SDS011;8498;52.516;13.790;2022-07-15T00:17:06;1.20;;;1.00;;
16760;SDS011;8498;52.516;13.790;2022-07-15T00:22:29;2.77;;;1.00;;
16760;SDS011;8498;52.516;13.790;2022-07-15T00:27:52;4.00;;;1.00;;
16760;SDS011;8498;52.516;13.790;2022-07-15T00:33:15;4.57;;;1.20;;
16760;SDS011;8498;52.516;13.790;2022-07-15T00:38:38;1.00;;;0.93;;
16760;SDS011;8498;52.516;13.790;2022-07-15T00:44:01;6.17;;;1.20;;
16760;SDS011;8498;52.516;13.790;2022-07-15T00:49:31;4.83;;;1.13;;
16760;SDS011;8498;52.516;13.790;2022-07-15T00:54:54;1.00;;;0.90;;
16760;SDS011;8498;52.516;13.790;2022-07-15T01:00:23;3.20;;;0.87;;
16760;SDS011;8498;52.516;13.790;2022-07-15T01:05:46;1.20;;;1.10;;
16760;SDS011;8498;52.516;13.790;2022-07-15T01:11:09;4.17;;;1.27;;
16760;SDS011;8498;52.516;13.790;2022-07-15T01:16:33;3.37;;;1.13;;
16760;SDS011;8498;52.516;13.790;2022-07-15T01:21:56;3.03;;;1.10;;
16760;SDS011;8498;52.516;13.790;2022-07-15T01:27:19;3.87;;;1.30;;
16760;SDS011;8498;52.516;13.790;2022-07-15T01:32:42;4.77;;;1.40;;
16760;SDS011;8498;52.516;13.790;2022-07-15T01:38:05;3.43;;;1.40;;
16760;SDS011;8498;52.516;13.790;2022-07-15T01:43:28;2.77;;;1.23;;
16760;SDS011;8498;52.516;13.790;2022-07-15T01:48:51;5.83;;;1.20;;
16760;SDS011;8498;52.516;13.790;2022-07-15T01:54:38;3.83;;;1.33;;
16760;SDS011;8498;52.516;13.790;2022-07-15T02:00:03;3.90;;;1.57;;
16760;SDS011;8498;52.516;13.790;2022-07-15T02:05:37;7.27;;;1.27;;
16760;SDS011;8498;52.516;13.790;2022-07-15T02:11:01;5.40;;;1.17;;
16760;SDS011;8498;52.516;13.790;2022-07-15T02:16:28;3.10;;;1.37;;
16760;SDS011;8498;52.516;13.790;2022-07-15T02:21:55;4.50;;;1.10;;
16760;SDS011;8498;52.516;13.790;2022-07-15T02:27:17;5.63;;;1.30;;
16760;SDS011;8498;52.516;13.790;2022-07-15T02:32:40;3.17;;;1.30;;
16760;SDS011;8498;52.516;13.790;2022-07-15T02:38:03;2.53;;;1.40;;
16760;SDS011;8498;52.516;13.790;2022-07-15T02:43:27;3.27;;;1.23;;
16760;SDS011;8498;52.516;13.790;2022-07-15T02:48:50;4.60;;;1.33;;
16760;SDS011;8498;52.516;13.790;2022-07-15T02:54:13;2.47;;;1.17;;
16760;SDS011;8498;52.516;13.790;2022-07-15T02:59:36;7.57;;;1.30;;
16760;SDS011;8498;52.516;13.790;2022-07-15T03:04:59;8.90;;;1.50;;
16760;SDS011;8498;52.516;13.790;2022-07-15T03:10:23;7.43;;;1.33;;
16760;SDS011;8498;52.516;13.790;2022-07-15T03:15:46;6.03;;;1.70;;
16760;SDS011;8498;52.516;13.790;2022-07-15T03:21:09;3.03;;;1.30;;
16760;SDS011;8498;52.516;13.790;2022-07-15T03:26:32;8.00;;;1.47;;
16760;SDS011;8498;52.516;13.790;2022-07-15T03:31:58;5.73;;;1.33;;
16760;SDS011;8498;52.516;13.790;2022-07-15T03:37:22;8.40;;;1.50;;
16760;SDS011;8498;52.516;13.790;2022-07-15T03:42:45;4.00;;;1.50;;
16760;SDS011;8498;52.516;13.790;2022-07-15T03:48:07;6.90;;;1.50;;
16760;SDS011;8498;52.516;13.790;2022-07-15T03:53:31;4.77;;;1.30;;
16760;SDS011;8498;52.516;13.790;2022-07-15T03:58:54;8.43;;;1.47;;
16760;SDS011;8498;52.516;13.790;2022-07-15T04:04:16;6.43;;;1.53;;
16760;SDS011;8498;52.516;13.790;2022-07-15T04:09:39;6.50;;;1.87;;
16760;SDS011;8498;52.516;13.790;2022-07-15T04:15:03;5.73;;;1.70;;
16760;SDS011;8498;52.516;13.790;2022-07-15T04:20:27;5.90;;;1.80;;
16760;SDS011;8498;52.516;13.790;2022-07-15T04:25:53;8.10;;;1.67;;
16760;SDS011;8498;52.516;13.790;2022-07-15T04:31:15;7.30;;;1.57;;
16760;SDS011;8498;52.516;13.790;2022-07-15T04:36:46;6.33;;;1.63;;
16760;SDS011;8498;52.516;13.790;2022-07-15T04:42:08;6.93;;;2.10;;
16760;SDS011;8498;52.516;13.790;2022-07-15T04:47:31;5.50;;;1.77;;
16760;SDS011;8498;52.516;13.790;2022-07-15T04:52:58;6.90;;;1.47;;
16760;SDS011;8498;52.516;13.790;2022-07-15T04:58:22;5.97;;;1.40;;
16760;SDS011;8498;52.516;13.790;2022-07-15T05:03:44;6.97;;;2.07;;
16760;SDS011;8498;52.516;13.790;2022-07-15T05:09:08;5.07;;;1.20;;
16760;SDS011;8498;52.516;13.790;2022-07-15T05:14:32;7.57;;;1.50;;
16760;SDS011;8498;52.516;13.790;2022-07-15T05:19:55;6.77;;;1.57;;
16760;SDS011;8498;52.516;13.790;2022-07-15T05:25:18;5.77;;;1.40;;
16760;SDS011;8498;52.516;13.790;2022-07-15T05:30:41;7.57;;;1.50;;
16760;SDS011;8498;52.516;13.790;2022-07-15T05:36:10;5.93;;;1.57;;
16760;SDS011;8498;52.516;13.790;2022-07-15T05:41:35;3.97;;;1.00;;
16760;SDS011;8498;52.516;13.790;2022-07-15T05:46:58;6.33;;;1.20;;
16760;SDS011;8498;52.516;13.790;2022-07-15T05:52:22;6.23;;;1.70;;
16760;SDS011;8498;52.516;13.790;2022-07-15T05:57:45;7.40;;;1.10;;
16760;SDS011;8498;52.516;13.790;2022-07-15T06:03:08;5.03;;;1.53;;
16760;SDS011;8498;52.516;13.790;2022-07-15T06:08:37;2.47;;;1.03;;
16760;SDS011;8498;52.516;13.790;2022-07-15T06:14:05;5.83;;;1.27;;
16760;SDS011;8498;52.516;13.790;2022-07-15T06:19:28;4.47;;;1.60;;
16760;SDS011;8498;52.516;13.790;2022-07-15T06:24:51;5.57;;;1.20;;
16760;SDS011;8498;52.516;13.790;2022-07-15T06:30:14;6.93;;;1.30;;
16760;SDS011;8498;52.516;13.790;2022-07-15T06:35:37;5.73;;;1.50;;
16760;SDS011;8498;52.516;13.790;2022-07-15T06:41:06;7.03;;;1.03;;
16760;SDS011;8498;52.516;13.790;2022-07-15T06:46:29;4.23;;;0.70;;
16760;SDS011;8498;52.516;13.790;2022-07-15T06:51:52;7.47;;;0.93;;
16760;SDS011;8498;52.516;13.790;2022-07-15T06:57:14;3.53;;;1.03;;
16760;SDS011;8498;52.516;13.790;2022-07-15T07:02:41;4.40;;;0.80;;
16760;SDS011;8498;52.516;13.790;2022-07-15T07:08:09;3.90;;;1.00;;
16760;SDS011;8498;52.516;13.790;2022-07-15T07:13:32;1.90;;;1.10;;
16760;SDS011;8498;52.516;13.790;2022-07-15T07:18:54;4.33;;;1.13;;
16760;SDS011;8498;52.516;13.790;2022-07-15T07:24:17;4.27;;;1.00;;
16760;SDS011;8498;52.516;13.790;2022-07-15T07:29:40;3.53;;;0.73;;
16760;SDS011;8498;52.516;13.790;2022-07-15T07:35:02;3.87;;;0.90;;
16760;SDS011;8498;52.516;13.790;2022-07-15T07:40:24;6.10;;;0.90;;
16760;SDS011;8498;52.516;13.790;2022-07-15T07:45:47;4.53;;;0.95;;
16760;SDS011;8498;52.516;13.790;2022-07-15T07:51:10;3.97;;;1.03;;
16760;SDS011;8498;52.516;13.790;2022-07-15T07:56:33;2.03;;;0.70;;
16760;SDS011;8498;52.516;13.790;2022-07-15T08:01:55;4.68;;;0.98;;
16760;SDS011;8498;52.516;13.790;2022-07-15T08:07:17;7.30;;;1.20;;
16760;SDS011;8498;52.516;13.790;2022-07-15T08:12:40;4.28;;;0.90;;
16760;SDS011;8498;52.516;13.790;2022-07-15T08:18:03;4.57;;;0.80;;
16760;SDS011;8498;52.516;13.790;2022-07-15T08:23:25;5.50;;;1.10;;
16760;SDS011;8498;52.516;13.790;2022-07-15T08:28:48;4.07;;;1.30;;
16760;SDS011;8498;52.516;13.790;2022-07-15T08:34:29;1.30;;;0.97;;
16760;SDS011;8498;52.516;13.790;2022-07-15T08:39:51;3.67;;;0.90;;
16760;SDS011;8498;52.516;13.790;2022-07-15T08:45:15;0.88;;;0.68;;
16760;SDS011;8498;52.516;13.790;2022-07-15T08:50:39;8.10;;;0.85;;
16760;SDS011;8498;52.516;13.790;2022-07-15T08:56:03;3.28;;;1.05;;
16760;SDS011;8498;52.516;13.790;2022-07-15T09:01:26;2.05;;;0.88;;
16760;SDS011;8498;52.516;13.790;2022-07-15T09:06:49;1.60;;;0.75;;
16760;SDS011;8498;52.516;13.790;2022-07-15T09:12:13;7.32;;;0.82;;
16760;SDS011;8498;52.516;13.790;2022-07-15T09:17:37;5.30;;;1.03;;
16760;SDS011;8498;52.516;13.790;2022-07-15T09:22:59;4.50;;;0.90;;
16760;SDS011;8498;52.516;13.790;2022-07-15T09:28:41;3.65;;;0.70;;
16760;SDS011;8498;52.516;13.790;2022-07-15T09:34:06;2.88;;;0.70;;
16760;SDS011;8498;52.516;13.790;2022-07-15T09:39:29;1.65;;;0.82;;
16760;SDS011;8498;52.516;13.790;2022-07-15T09:44:51;4.32;;;1.00;;
16760;SDS011;8498;52.516;13.790;2022-07-15T09:50:14;2.35;;;0.80;;
16760;SDS011;8498;52.516;13.790;2022-07-15T09:55:57;3.63;;;0.88;;
16760;SDS011;8498;52.516;13.790;2022-07-15T10:01:19;4.60;;;0.98;;
16760;SDS011;8498;52.516;13.790;2022-07-15T10:06:42;1.83;;;0.90;;
16760;SDS011;8498;52.516;13.790;2022-07-15T10:12:24;4.60;;;1.10;;
16760;SDS011;8498;52.516;13.790;2022-07-15T10:28:58;4.10;;;1.02;;
16760;SDS011;8498;52.516;13.790;2022-07-15T10:34:37;4.35;;;0.82;;
16760;SDS011;8498;52.516;13.790;2022-07-15T10:40:01;5.13;;;0.90;;
16760;SDS011;8498;52.516;13.790;2022-07-15T10:45:28;3.58;;;0.85;;
16760;SDS011;8498;52.516;13.790;2022-07-15T10:50:52;3.33;;;1.08;;
16760;SDS011;8498;52.516;13.790;2022-07-15T10:56:36;5.13;;;0.93;;
16760;SDS011;8498;52.516;13.790;2022-07-15T11:07:25;1.90;;;0.75;;
16760;SDS011;8498;52.516;13.790;2022-07-15T11:18:15;3.47;;;0.77;;
16760;SDS011;8498;52.516;13.790;2022-07-15T11:23:38;2.55;;;0.77;;
16760;SDS011;8498;52.516;13.790;2022-07-15T11:29:01;0.98;;;0.80;;
16760;SDS011;8498;52.516;13.790;2022-07-15T11:34:23;4.70;;;1.17;;
16760;SDS011;8498;52.516;13.790;2022-07-15T11:39:47;3.97;;;1.20;;
16760;SDS011;8498;52.516;13.790;2022-07-15T11:45:10;3.08;;;0.77;;
16760;SDS011;8498;52.516;13.790;2022-07-15T11:50:37;4.78;;;0.93;;
16760;SDS011;8498;52.516;13.790;2022-07-15T11:56:11;1.15;;;0.70;;
16760;SDS011;8498;52.516;13.790;2022-07-15T12:01:36;0.60;;;0.60;;
16760;SDS011;8498;52.516;13.790;2022-07-15T12:06:58;1.13;;;0.88;;
16760;SDS011;8498;52.516;13.790;2022-07-15T12:12:21;2.15;;;0.90;;
16760;SDS011;8498;52.516;13.790;2022-07-15T12:17:44;1.67;;;0.50;;
16760;SDS011;8498;52.516;13.790;2022-07-15T12:23:07;4.38;;;0.95;;
16760;SDS011;8498;52.516;13.790;2022-07-15T12:28:31;4.88;;;1.05;;
16760;SDS011;8498;52.516;13.790;2022-07-15T12:33:55;3.47;;;0.70;;
16760;SDS011;8498;52.516;13.790;2022-07-15T12:39:17;4.20;;;0.85;;
16760;SDS011;8498;52.516;13.790;2022-07-15T12:44:42;3.38;;;1.13;;
16760;SDS011;8498;52.516;13.790;2022-07-15T12:50:05;4.47;;;0.80;;
16760;SDS011;8498;52.516;13.790;2022-07-15T12:55:29;7.72;;;0.93;;
16760;SDS011;8498;52.516;13.790;2022-07-15T13:01:03;1.90;;;0.70;;
16760;SDS011;8498;52.516;13.790;2022-07-15T13:06:27;3.72;;;0.90;;
16760;SDS011;8498;52.516;13.790;2022-07-15T13:11:58;2.05;;;0.65;;
16760;SDS011;8498;52.516;13.790;2022-07-15T13:17:23;2.00;;;0.60;;
16760;SDS011;8498;52.516;13.790;2022-07-15T13:22:46;8.88;;;0.75;;
16760;SDS011;8498;52.516;13.790;2022-07-15T13:28:09;1.25;;;0.45;;
16760;SDS011;8498;52.516;13.790;2022-07-15T13:33:31;4.55;;;0.70;;
16760;SDS011;8498;52.516;13.790;2022-07-15T13:38:54;1.30;;;0.70;;
16760;SDS011;8498;52.516;13.790;2022-07-15T13:44:16;3.08;;;0.60;;
16760;SDS011;8498;52.516;13.790;2022-07-15T13:49:39;3.15;;;0.90;;
16760;SDS011;8498;52.516;13.790;2022-07-15T13:55:21;2.42;;;0.63;;
16760;SDS011;8498;52.516;13.790;2022-07-15T14:00:44;2.13;;;0.90;;
16760;SDS011;8498;52.516;13.790;2022-07-15T14:06:07;1.13;;;0.68;;
16760;SDS011;8498;52.516;13.790;2022-07-15T14:11:29;0.73;;;0.50;;
16760;SDS011;8498;52.516;13.790;2022-07-15T14:16:52;5.93;;;1.20;;
16760;SDS011;8498;52.516;13.790;2022-07-15T14:22:15;2.15;;;1.02;;
16760;SDS011;8498;52.516;13.790;2022-07-15T14:27:38;5.35;;;0.80;;
16760;SDS011;8498;52.516;13.790;2022-07-15T14:33:01;3.17;;;1.10;;
16760;SDS011;8498;52.516;13.790;2022-07-15T14:38:23;2.80;;;0.95;;
16760;SDS011;8498;52.516;13.790;2022-07-15T14:43:46;1.65;;;0.68;;
16760;SDS011;8498;52.516;13.790;2022-07-15T14:49:15;2.95;;;0.80;;
16760;SDS011;8498;52.516;13.790;2022-07-15T14:54:38;1.70;;;0.75;;
16760;SDS011;8498;52.516;13.790;2022-07-15T15:00:01;4.13;;;0.90;;
16760;SDS011;8498;52.516;13.790;2022-07-15T15:05:24;2.75;;;0.93;;
16760;SDS011;8498;52.516;13.790;2022-07-15T15:10:46;3.20;;;0.90;;
16760;SDS011;8498;52.516;13.790;2022-07-15T15:16:09;4.47;;;1.00;;
16760;SDS011;8498;52.516;13.790;2022-07-15T15:21:31;3.97;;;1.48;;
16760;SDS011;8498;52.516;13.790;2022-07-15T15:26:54;3.45;;;1.20;;
16760;SDS011;8498;52.516;13.790;2022-07-15T15:32:17;3.67;;;1.27;;
16760;SDS011;8498;52.516;13.790;2022-07-15T15:37:40;5.00;;;1.92;;
16760;SDS011;8498;52.516;13.790;2022-07-15T15:43:04;5.60;;;1.48;;
16760;SDS011;8498;52.516;13.790;2022-07-15T15:48:27;5.45;;;1.30;;
16760;SDS011;8498;52.516;13.790;2022-07-15T15:53:50;3.22;;;1.08;;
16760;SDS011;8498;52.516;13.790;2022-07-15T15:59:13;4.68;;;1.38;;
16760;SDS011;8498;52.516;13.790;2022-07-15T16:04:35;3.53;;;1.23;;
16760;SDS011;8498;52.516;13.790;2022-07-15T16:10:18;2.60;;;0.93;;
16760;SDS011;8498;52.516;13.790;2022-07-15T16:15:41;4.82;;;1.25;;
16760;SDS011;8498;52.516;13.790;2022-07-15T16:21:04;4.82;;;1.17;;
16760;SDS011;8498;52.516;13.790;2022-07-15T16:26:26;3.05;;;1.20;;
16760;SDS011;8498;52.516;13.790;2022-07-15T16:31:49;5.30;;;1.20;;
16760;SDS011;8498;52.516;13.790;2022-07-15T16:37:11;2.35;;;1.00;;
16760;SDS011;8498;52.516;13.790;2022-07-15T16:42:34;2.00;;;1.20;;
16760;SDS011;8498;52.516;13.790;2022-07-15T16:47:56;3.55;;;1.20;;
16760;SDS011;8498;52.516;13.790;2022-07-15T16:53:19;1.63;;;1.50;;
16760;SDS011;8498;52.516;13.790;2022-07-15T16:58:42;4.00;;;1.35;;
16760;SDS011;8498;52.516;13.790;2022-07-15T17:04:04;4.75;;;1.33;;
16760;SDS011;8498;52.516;13.790;2022-07-15T17:09:27;1.73;;;1.52;;
16760;SDS011;8498;52.516;13.790;2022-07-15T17:14:49;0.95;;;0.82;;
16760;SDS011;8498;52.516;13.790;2022-07-15T17:20:13;3.78;;;1.77;;
16760;SDS011;8498;52.516;13.790;2022-07-15T17:25:36;1.98;;;1.30;;
16760;SDS011;8498;52.516;13.790;2022-07-15T17:31:00;3.03;;;1.00;;
16760;SDS011;8498;52.516;13.790;2022-07-15T17:36:23;2.88;;;0.90;;
16760;SDS011;8498;52.516;13.790;2022-07-15T17:41:46;3.78;;;1.38;;
16760;SDS011;8498;52.516;13.790;2022-07-15T17:47:09;1.38;;;1.05;;
16760;SDS011;8498;52.516;13.790;2022-07-15T17:52:32;4.10;;;1.52;;
16760;SDS011;8498;52.516;13.790;2022-07-15T17:57:54;7.80;;;2.10;;
16760;SDS011;8498;52.516;13.790;2022-07-15T18:03:17;3.83;;;1.15;;
16760;SDS011;8498;52.516;13.790;2022-07-15T18:08:41;6.93;;;1.30;;
16760;SDS011;8498;52.516;13.790;2022-07-15T18:14:03;2.20;;;1.25;;
16760;SDS011;8498;52.516;13.790;2022-07-15T18:19:26;2.70;;;1.00;;
16760;SDS011;8498;52.516;13.790;2022-07-15T18:24:48;4.72;;;1.20;;
16760;SDS011;8498;52.516;13.790;2022-07-15T18:30:11;2.92;;;1.50;;
16760;SDS011;8498;52.516;13.790;2022-07-15T18:35:37;1.98;;;1.08;;
16760;SDS011;8498;52.516;13.790;2022-07-15T18:41:02;4.00;;;2.13;;
16760;SDS011;8498;52.516;13.790;2022-07-15T18:46:27;1.60;;;1.30;;
16760;SDS011;8498;52.516;13.790;2022-07-15T18:51:49;4.65;;;1.20;;
16760;SDS011;8498;52.516;13.790;2022-07-15T18:57:12;4.93;;;1.80;;
16760;SDS011;8498;52.516;13.790;2022-07-15T19:02:35;4.93;;;1.85;;
16760;SDS011;8498;52.516;13.790;2022-07-15T19:07:59;8.38;;;4.75;;
16760;SDS011;8498;52.516;13.790;2022-07-15T19:13:22;8.82;;;3.60;;
16760;SDS011;8498;52.516;13.790;2022-07-15T19:18:45;3.97;;;2.20;;
16760;SDS011;8498;52.516;13.790;2022-07-15T19:24:08;1.13;;;1.00;;
16760;SDS011;8498;52.516;13.790;2022-07-15T19:29:31;4.90;;;1.50;;
16760;SDS011;8498;52.516;13.790;2022-07-15T19:34:55;2.75;;;0.98;;
16760;SDS011;8498;52.516;13.790;2022-07-15T19:40:17;3.33;;;1.48;;
16760;SDS011;8498;52.516;13.790;2022-07-15T19:45:40;3.15;;;1.48;;
16760;SDS011;8498;52.516;13.790;2022-07-15T19:51:02;1.67;;;1.48;;
16760;SDS011;8498;52.516;13.790;2022-07-15T19:56:26;1.73;;;1.10;;
16760;SDS011;8498;52.516;13.790;2022-07-15T20:01:48;3.50;;;1.13;;
16760;SDS011;8498;52.516;13.790;2022-07-15T20:07:11;1.83;;;1.30;;
16760;SDS011;8498;52.516;13.790;2022-07-15T20:12:36;4.68;;;1.70;;
16760;SDS011;8498;52.516;13.790;2022-07-15T20:17:59;5.70;;;1.95;;
16760;SDS011;8498;52.516;13.790;2022-07-15T20:23:23;3.97;;;2.33;;
16760;SDS011;8498;52.516;13.790;2022-07-15T20:28:45;3.58;;;1.80;;
16760;SDS011;8498;52.516;13.790;2022-07-15T20:34:08;2.35;;;2.05;;
16760;SDS011;8498;52.516;13.790;2022-07-15T20:39:31;2.17;;;1.92;;
16760;SDS011;8498;52.516;13.790;2022-07-15T20:44:53;7.13;;;1.67;;
16760;SDS011;8498;52.516;13.790;2022-07-15T20:50:16;2.17;;;1.40;;
16760;SDS011;8498;52.516;13.790;2022-07-15T20:55:38;3.47;;;1.02;;
16760;SDS011;8498;52.516;13.790;2022-07-15T21:01:03;5.00;;;1.15;;
16760;SDS011;8498;52.516;13.790;2022-07-15T21:06:26;1.30;;;1.20;;
16760;SDS011;8498;52.516;13.790;2022-07-15T21:11:49;3.95;;;1.27;;
16760;SDS011;8498;52.516;13.790;2022-07-15T21:17:11;2.37;;;0.97;;
16760;SDS011;8498;52.516;13.790;2022-07-15T21:22:34;2.83;;;1.10;;
16760;SDS011;8498;52.516;13.790;2022-07-15T21:27:56;2.03;;;1.20;;
16760;SDS011;8498;52.516;13.790;2022-07-15T21:33:19;4.40;;;1.10;;
16760;SDS011;8498;52.516;13.790;2022-07-15T21:38:42;2.15;;;1.10;;
16760;SDS011;8498;52.516;13.790;2022-07-15T21:44:05;2.50;;;1.05;;
16760;SDS011;8498;52.516;13.790;2022-07-15T21:49:27;0.80;;;0.80;;
16760;SDS011;8498;52.516;13.790;2022-07-15T21:54:50;4.72;;;0.77;;
16760;SDS011;8498;52.516;13.790;2022-07-15T22:00:14;1.17;;;0.88;;
16760;SDS011;8498;52.516;13.790;2022-07-15T22:05:37;1.00;;;0.82;;
16760;SDS011;8498;52.516;13.790;2022-07-15T22:11:01;0.80;;;0.80;;
16760;SDS011;8498;52.516;13.790;2022-07-15T22:16:24;1.73;;;0.68;;
16760;SDS011;8498;52.516;13.790;2022-07-15T22:21:47;2.30;;;0.70;;
16760;SDS011;8498;52.516;13.790;2022-07-15T22:27:09;2.20;;;1.00;;
16760;SDS011;8498;52.516;13.790;2022-07-15T22:32:32;1.63;;;0.80;;
16760;SDS011;8498;52.516;13.790;2022-07-15T22:37:55;1.75;;;0.70;;
16760;SDS011;8498;52.516;13.790;2022-07-15T22:43:17;1.67;;;0.90;;
16760;SDS011;8498;52.516;13.790;2022-07-15T22:48:40;1.58;;;0.70;;
16760;SDS011;8498;52.516;13.790;2022-07-15T22:54:02;2.60;;;0.90;;
16760;SDS011;8498;52.516;13.790;2022-07-15T22:59:25;0.90;;;0.90;;
16760;SDS011;8498;52.516;13.790;2022-07-15T23:04:47;1.10;;;0.80;;
16760;SDS011;8498;52.516;13.790;2022-07-15T23:10:10;4.63;;;0.90;;
16760;SDS011;8498;52.516;13.790;2022-07-15T23:15:32;2.80;;;1.30;;
16760;SDS011;8498;52.516;13.790;2022-07-15T23:20:54;4.35;;;0.88;;
16760;SDS011;8498;52.516;13.790;2022-07-15T23:26:23;1.02;;;0.93;;
16760;SDS011;8498;52.516;13.790;2022-07-15T23:31:46;1.53;;;1.00;;
16760;SDS011;8498;52.516;13.790;2022-07-15T23:37:28;1.90;;;0.90;;
16760;SDS011;8498;52.516;13.790;2022-07-15T23:42:51;1.57;;;0.83;;
16760;SDS011;8498;52.516;13.790;2022-07-15T23:48:13;3.95;;;1.20;;
16760;SDS011;8498;52.516;13.790;2022-07-15T23:53:35;2.05;;;0.90;;
16760;SDS011;8498;52.516;13.790;2022-07-15T23:59:04;4.00;;;0.80;;
